Webcam op het Zuiden Meer informatie Webcam op het Zuiden


Webcam op het Westen Meer informatie Webcam op het Westen


Onweer radar Meer informatie blitzortung!


Regen radar  rain snow radar


Lokaal brand risico:
CBI


Regionaal brand risico: Meer informatie


Lokaal brand risico:
Gebaseerd op actuele waarde
CBI


Bezoek ook deze websites:

Template documentation
and downloads

And another site



Mist van: 28-02-2021 10:00 tot: 12:00 waarschuwing voor: Mist niveau: Geel info button
Plaatselijk dichte mist met een zicht van minder dan 200 meter.Gevaarlijke rijomstandigheden door slecht zicht.Pas snelheid aan en houd voldoende afstand.Mist kan verraderlijk zijn door plotseling optreden.Volg weerberichten en waarschuwingen.

METAR rapporten vliegvelden

   
ETWM - Meppen, Germany
Afstand tot: O 29 km
Gewijzigd: 28-02-2021 10:20
  
  
   Wind: varieert 1.9 km/h
Wind: varieert 1.9 km/h
Temperatuur: 1°C
Dauwpunt: 0°C
Vochtigheid: 93%
Barometer: 1039 hPa
ETWM 280920Z AUTO VRB01KT //// // ////// 01/00 Q1039 ///
EHGG - Groningen/Eelde, Netherlands
Afstand tot: NNW 47 km
Gewijzigd: 28-02-2021 10:55
Mist, Bewolking  
Mist, Bewolking  
   Wind: varieert 3.7 km/h
Wind: varieert 3.7 km/h
Temperatuur: 1°C
Dauwpunt: 1°C
Vochtigheid: 100%
Barometer: 1039 hPa
Bewolking: Bewolking
Zicht: 0 km
Bewolking: Bewolking
EHGG 280955Z AUTO VRB02KT 0150 R23/0250N FG VV000 01/01 Q1039 TEMPO 0300
EDDG - Muenster/Osnabru, Germany
Afstand tot: ZO 87 km
Gewijzigd: 28-02-2021 10:50
Mist, Grotendeels bewolkt  
Mist, Grotendeels bewolkt  
   Wind: varieert 1.9 km/h
Wind: varieert 1.9 km/h
Temperatuur: 4°C
Dauwpunt: 4°C
Vochtigheid: 100%
Barometer: 1038 hPa
Bewolking: Grotendeels bewolkt
Zicht: 1 km
Bewolking: Grotendeels bewolkt 100 ft
EDDG 280950Z VRB01KT 0500 R25/0900U FG BKN001 04/04 Q1038 BECMG 0800 SCT005
EHLW - Leeuwarden Rnlaf, Netherlands
Afstand tot: NW 93 km
Gewijzigd: 28-02-2021 10:55
Mist, Bewolking  
Mist, Bewolking  
   Wind: Noorden 5.6 km/h
Wind: Noorden 5.6 km/h
Temperatuur: 4°C
Voelt als: 3°C
Dauwpunt: 4°C
Vochtigheid: 100%
Barometer: 1039 hPa
Bewolking: Bewolking
Zicht: 0 km
Bewolking: Bewolking
EHLW 280955Z AUTO 01003KT 310V060 0250 FG OVC000 04/04 Q1039 RED
ETNT - Wittmundhaven(Ga, Germany
Afstand tot: NNO 100 km
Gewijzigd: 28-02-2021 10:20
  
  
   Wind: varieert 3.7 km/h
Wind: varieert 3.7 km/h
Temperatuur: 2°C
Dauwpunt: 1°C
Vochtigheid: 93%
Barometer: 1039 hPa
Zicht: 0 km
ETNT 280920Z AUTO VRB02KT 0200 // ////// 02/01 Q1039 ///
ETND - Diepholz (ger-Af, Germany
Afstand tot: O 104 km
Gewijzigd: 26-02-2021 11:20
Verouderd
Licht bewolkt  
Licht bewolkt  
   Wind: NW 14.8 km/h
Wind: NW 14.8 km/h
Temperatuur: 9°C
Voelt als: 7°C
Dauwpunt: 3°C
Vochtigheid: 66%
Barometer: 1032 hPa
Bewolking: Licht bewolkt
Zicht: meer dan 10 km
Bewolking: Licht bewolkt 2400 ft
ETND 261020Z 31008KT 9999 FEW024 09/03 Q1032 BLU+
ETNT - Wittmundhaven(Ga, Germany
Afstand tot: NNO 102 km
Gewijzigd: 28-02-2021 10:20
  
  
   Wind: varieert 3.7 km/h
Wind: varieert 3.7 km/h
Temperatuur: 2°C
Dauwpunt: 1°C
Vochtigheid: 93%
Barometer: 1039 hPa
Zicht: 0 km
ETNT 280920Z AUTO VRB02KT 0200 // ////// 02/01 Q1039 ///
EHDL - Deelen Rnlafb, Netherlands
Afstand tot: ZW 103 km
Gewijzigd: 28-02-2021 10:55
Helder  
Helder  
   Wind: varieert 9.3 km/h
Wind: varieert 9.3 km/h
Temperatuur: 6°C
Voelt als: 4°C
Dauwpunt: 4°C
Vochtigheid: 87%
Barometer: 1038 hPa
Bewolking: Helder
Zicht: meer dan 10 km
Bewolking: Helder
EHDL 280955Z AUTO VRB05KT 9999 NCD 06/04 Q1038 BLU
EHMA - Awg-1 Sea, Netherlands
Afstand tot: NW 105 km
Gewijzigd: 28-02-2021 10:55
Motregen, Bewolking  
Motregen, Bewolking  
   Wind: NNW 7.4 km/h
Wind: NNW 7.4 km/h
Temperatuur: 2°C
Voelt als: 0°C
Dauwpunt: 2°C
Vochtigheid: 100%
Barometer: 1039 hPa
Bewolking: Bewolking
Zicht: 1 km
Bewolking: Bewolking
EHMA 280955Z AUTO 34004KT 310V010 0900 DZ VV000 02/02 Q1039
EDDW - Bremen, Germany
Afstand tot: ONO 135 km
Gewijzigd: 28-02-2021 10:50
Nevel, Grotendeels bewolkt  
Nevel, Grotendeels bewolkt  
   Wind: ZW 7.4 km/h
Wind: ZW 7.4 km/h
Temperatuur: 3°C
Voelt als: 1°C
Dauwpunt: 3°C
Vochtigheid: 100%
Barometer: 1038 hPa
Bewolking: Grotendeels bewolkt
Zicht: 3 km
Bewolking: Grotendeels bewolkt 200 ft
EDDW 280950Z 22004KT 3300 BR BKN002 03/03 Q1038 BECMG 5000
EHVL - Vlieland Island, Netherlands
Afstand tot: WNW 138 km
Gewijzigd: 28-02-2021 10:55
Mist, Bewolking  
Mist, Bewolking  
   Wind: Noorden 5.6 km/h
Wind: Noorden 5.6 km/h
Temperatuur: 3°C
Voelt als: 2°C
Dauwpunt: 3°C
Vochtigheid: 100%
Barometer: 1039 hPa
Bewolking: Bewolking
Zicht: 0 km
Bewolking: Bewolking
EHVL 280955Z AUTO 01003KT 0200 FG VV000 03/03 Q1039 RED
EDLV - Niederrhein, Germany
Afstand tot: ZZW 139 km
Gewijzigd: 28-02-2021 10:50
Licht bewolkt  
Licht bewolkt  
   Wind: varieert 3.7 km/h
Wind: varieert 3.7 km/h
Temperatuur: 5°C
Dauwpunt: 4°C
Vochtigheid: 93%
Barometer: 1038 hPa
Bewolking: Licht bewolkt
Zicht: meer dan 10 km
Bewolking: Licht bewolkt 100 ft
EDLV 280950Z VRB02KT 9999 FEW001 05/04 Q1038
EHKD - De Kooy (navy), Netherlands
Afstand tot: W 144 km
Gewijzigd: 28-02-2021 10:55
Mist, Bewolking  
Mist, Bewolking  
   Wind: varieert 3.7 km/h
Wind: varieert 3.7 km/h
Temperatuur: 4°C
Dauwpunt: 4°C
Vochtigheid: 100%
Barometer: 1039 hPa
Bewolking: Bewolking
Zicht: 0 km
Bewolking: Bewolking
EHKD 280955Z AUTO VRB02KT 0100 FG OVC000 04/04 Q1039 RED
EDLW - Dortmund/Wickede, Germany
Afstand tot: ZZO 150 km
Gewijzigd: 28-02-2021 10:50
Licht bewolkt  
Licht bewolkt  
   Wind: OZO 11.1 km/h
Wind: OZO 11.1 km/h
Temperatuur: 7°C
Voelt als: 5°C
Dauwpunt: 4°C
Vochtigheid: 81%
Barometer: 1037 hPa
Bewolking: Licht bewolkt
Zicht: meer dan 10 km
Bewolking: Licht bewolkt 1300 ft
EDLW 280950Z 11006KT 070V130 9999 FEW013 07/04 Q1037
EHVK - Volkel Rnlafb, Netherlands
Afstand tot: ZZW 149 km
Gewijzigd: 28-02-2021 10:56
Nevel, Grotendeels bewolkt  
Nevel, Grotendeels bewolkt  
   Wind: NO 9.3 km/h
Wind: NO 9.3 km/h
Temperatuur: 5°C
Voelt als: 3°C
Dauwpunt: 5°C
Vochtigheid: 100%
Barometer: 1038 hPa
Bewolking: Grotendeels bewolkt
Zicht: 5 km
Bewolking: Licht bewolkt 200 ft,
Grotendeels bewolkt 300 ft
EHVK 280956Z AUTO 04005KT 020V080 4700 BR FEW002 BKN003 05/05 Q1038 YLO
EDLW - Dortmund/Wickede, Germany
Afstand tot: ZZO 150 km
Gewijzigd: 28-02-2021 10:50
Licht bewolkt  
Licht bewolkt  
   Wind: OZO 11.1 km/h
Wind: OZO 11.1 km/h
Temperatuur: 7°C
Voelt als: 5°C
Dauwpunt: 4°C
Vochtigheid: 81%
Barometer: 1037 hPa
Bewolking: Licht bewolkt
Zicht: meer dan 10 km
Bewolking: Licht bewolkt 1300 ft
EDLW 280950Z 11006KT 070V130 9999 FEW013 07/04 Q1037
EHMG - L9-Ff-1 Sea, Netherlands
Afstand tot: NW 155 km
Gewijzigd: 28-02-2021 10:55
Mist, Bewolking  
Mist, Bewolking  
   Wind: Noorden 9.3 km/h
Wind: Noorden 9.3 km/h
Temperatuur: 2°C
Voelt als: -1°C
Dauwpunt: 2°C
Vochtigheid: 100%
Barometer: 1040 hPa
Bewolking: Bewolking
Zicht: 0 km
Bewolking: Bewolking
EHMG 280955Z AUTO 36005KT 0400 FG VV000 02/02 Q1040
ETHB - Buckeburg(Ger-Ar, Germany
Afstand tot: OZO 161 km
Gewijzigd: 28-02-2021 10:20
  
  
   Wind: varieert 3.7 km/h
Wind: varieert 3.7 km/h
Temperatuur: 3°C
Dauwpunt: 3°C
Vochtigheid: 100%
Barometer: 1038 hPa
Zicht: 0 km
ETHB 280920Z AUTO VRB02KT 0100 // ////// 03/03 Q1038 ///
ETMN - Nordholz (ger-Na, Germany
Afstand tot: NO 164 km
Gewijzigd: 28-02-2021 10:20
Mist, Bewolking  
Mist, Bewolking  
   Wind: Westen 9.3 km/h
Wind: Westen 9.3 km/h
Temperatuur: 4°C
Voelt als: 2°C
Dauwpunt: 4°C
Vochtigheid: 100%
Barometer: 1038 hPa
Bewolking: Bewolking
Zicht: 0 km
Bewolking: Bewolking 100 ft
ETMN 280920Z 27005KT 0400 FG VV001 04/04 Q1038 RED
EDDL - Duesseldorf, Germany
Afstand tot: Z 165 km
Gewijzigd: 28-02-2021 10:50
Licht bewolkt  
Licht bewolkt  
   Wind: Oosten 14.8 km/h
Wind: Oosten 14.8 km/h
Temperatuur: 8°C
Voelt als: 6°C
Dauwpunt: 3°C
Vochtigheid: 71%
Barometer: 1037 hPa
Bewolking: Licht bewolkt
Zicht: meer dan 10 km
Bewolking: Licht bewolkt 1800 ft
EDDL 280950Z 08008KT 050V110 9999 FEW018 08/03 Q1037 NOSIG
EDLN - Monchengladbach, Germany
Afstand tot: Z 174 km
Gewijzigd: 28-02-2021 10:50
Licht bewolkt  
Licht bewolkt  
   Wind: ONO 13 km/h
Wind: ONO 13 km/h
Temperatuur: 8°C
Voelt als: 6°C
Dauwpunt: 4°C
Vochtigheid: 76%
Barometer: 1038 hPa
Bewolking: Licht bewolkt
Zicht: meer dan 10 km
Bewolking: Licht bewolkt 1800 ft
EDLN 280950Z 07007KT 040V110 9999 FEW018 08/04 Q1038

Script ontwikkeld door  Saratoga-weather.org Aangepast voor de template door  Weerstation Leuven

U vindt ons ook hier:

Het Weer Aktueel

European Weather Network

Weather Underground

Wetterpage 24

Apparatuur in gebruik:

Weerstation
Davis VP2

Weerprogramma
Meteohub

Hardware
RaspberryPI, Wireless Weather Envoy, MeteoStick, TP-Link MR3020

Leverancier
Weerhuisje.nl weerstations

Davis VP2

Meteohub

RaspberryPI, Wireless Weather Envoy, MeteoStick, TP-Link MR3020

Weerhuisje.nl weerstations